createdAt,value
2023-02-07T00:01:48.590Z,22.00
2023-02-07T00:04:15.304Z,23.63
2023-02-07T00:06:41.891Z,24.88
2023-02-07T00:09:10.593Z,25.65
2023-02-07T00:11:40.627Z,23.13
2023-02-07T00:14:08.926Z,25.10
2023-02-07T00:16:35.524Z,27.00
2023-02-07T00:19:02.022Z,22.88
2023-02-07T00:21:29.222Z,25.98
2023-02-07T00:23:55.820Z,27.63
2023-02-07T00:26:24.830Z,26.10
2023-02-07T00:28:53.082Z,23.48
2023-02-07T00:31:22.930Z,23.17
2023-02-07T00:33:50.698Z,24.92
2023-02-07T00:36:20.436Z,27.53
2023-02-07T00:38:48.075Z,23.77
2023-02-07T00:41:17.669Z,19.90
2023-02-07T00:43:45.575Z,25.35
2023-02-07T00:46:12.321Z,28.02
2023-02-07T00:48:41.717Z,27.27
2023-02-07T00:51:09.482Z,26.35
2023-02-07T00:53:36.110Z,26.58
2023-02-07T00:56:02.641Z,25.80
2023-02-07T00:58:29.884Z,29.10
2023-02-07T01:00:56.378Z,27.63
2023-02-07T01:03:22.974Z,31.77
2023-02-07T01:05:49.754Z,32.95
2023-02-07T01:08:16.713Z,25.92
2023-02-07T01:10:44.599Z,23.30
2023-02-07T01:13:12.927Z,25.23
2023-02-07T01:15:42.250Z,28.70
2023-02-07T01:18:08.790Z,26.52
2023-02-07T01:20:35.930Z,25.35
2023-02-07T01:23:04.927Z,31.00
2023-02-07T01:25:31.705Z,24.43
2023-02-07T01:27:58.229Z,23.08
2023-02-07T01:30:24.763Z,25.63
2023-02-07T01:32:51.362Z,24.23
2023-02-07T01:35:17.952Z,27.77
2023-02-07T01:37:44.402Z,21.43
2023-02-07T01:40:12.838Z,26.23
2023-02-07T01:42:39.506Z,25.67
2023-02-07T01:45:18.856Z,26.38
2023-02-07T01:47:46.645Z,27.38
2023-02-07T01:50:13.410Z,25.57
2023-02-07T01:52:41.480Z,28.63
2023-02-07T01:55:13.218Z,26.70
2023-02-07T01:57:40.869Z,26.35
2023-02-07T02:00:08.433Z,25.55
2023-02-07T02:02:42.112Z,27.87
2023-02-07T02:05:10.297Z,24.90
2023-02-07T02:07:37.882Z,32.35
2023-02-07T02:10:14.308Z,24.50
2023-02-07T02:13:06.795Z,25.63
2023-02-07T02:15:39.689Z,25.83
2023-02-07T02:18:18.809Z,24.95
2023-02-07T02:21:22.874Z,28.15
2023-02-07T02:24:34.229Z,23.25
2023-02-07T02:27:09.945Z,27.27
2023-02-07T02:30:14.053Z,22.87
2023-02-07T02:32:53.993Z,29.52
2023-02-07T02:35:41.205Z,25.38
2023-02-07T02:38:33.730Z,28.08
2023-02-07T02:41:11.358Z,28.58
2023-02-07T02:43:50.423Z,26.03
2023-02-07T02:46:35.292Z,28.40
2023-02-07T02:49:04.873Z,27.67
2023-02-07T02:51:32.493Z,25.08
2023-02-07T02:54:00.754Z,32.92
2023-02-07T02:56:54.673Z,27.73
2023-02-07T02:59:49.687Z,28.58
2023-02-07T03:02:43.371Z,24.95
2023-02-07T03:05:16.267Z,29.48
2023-02-07T03:07:58.807Z,26.42
2023-02-07T03:10:45.892Z,25.50
2023-02-07T03:13:28.989Z,29.70
2023-02-07T03:16:10.994Z,23.30
2023-02-07T03:18:42.612Z,25.88
2023-02-07T03:21:24.600Z,28.90
2023-02-07T03:23:54.186Z,27.13
2023-02-07T03:26:23.218Z,30.48
2023-02-07T03:28:54.809Z,29.17
2023-02-07T03:31:24.587Z,23.55
2023-02-07T03:33:56.459Z,27.50
2023-02-07T03:36:29.450Z,24.70
2023-02-07T03:38:55.958Z,26.70
2023-02-07T03:41:37.159Z,23.77
2023-02-07T03:44:07.201Z,27.75
2023-02-07T03:46:37.861Z,26.45
2023-02-07T03:49:05.568Z,24.13
2023-02-07T03:51:32.040Z,25.00
2023-02-07T03:53:58.542Z,30.70
2023-02-07T03:56:25.304Z,25.27
2023-02-07T03:58:52.014Z,25.25
2023-02-07T04:01:18.621Z,27.00
2023-02-07T04:03:45.318Z,28.52
2023-02-07T04:06:11.876Z,29.08
2023-02-07T04:08:38.364Z,27.92
2023-02-07T04:11:04.973Z,23.77
2023-02-07T04:13:31.407Z,26.47
2023-02-07T04:15:58.185Z,22.92
2023-02-07T04:18:24.701Z,24.98
2023-02-07T04:20:51.188Z,26.55
2023-02-07T04:23:17.833Z,23.23
2023-02-07T04:25:44.299Z,25.67
2023-02-07T04:28:14.256Z,29.38
2023-02-07T04:30:40.844Z,26.55
2023-02-07T04:33:07.372Z,25.02
2023-02-07T04:35:33.845Z,23.73
2023-02-07T04:38:00.851Z,23.93
2023-02-07T04:40:27.377Z,20.73
2023-02-07T04:42:53.928Z,27.77
2023-02-07T04:45:20.417Z,26.83
2023-02-07T04:47:46.876Z,27.45
2023-02-07T04:50:13.534Z,23.27
2023-02-07T04:52:41.412Z,23.42
2023-02-07T04:55:09.660Z,27.77
2023-02-07T04:57:36.353Z,25.67
2023-02-07T05:00:04.224Z,27.85
2023-02-07T05:02:30.754Z,25.33
2023-02-07T05:04:57.227Z,22.85
2023-02-07T05:07:23.758Z,24.83
2023-02-07T05:09:50.287Z,24.13
2023-02-07T05:12:16.810Z,22.90
2023-02-07T05:14:43.313Z,25.37
2023-02-07T05:17:09.859Z,25.08
2023-02-07T05:19:36.462Z,23.15
2023-02-07T05:22:03.021Z,22.90
2023-02-07T05:24:29.768Z,21.38
2023-02-07T05:26:56.264Z,25.20
2023-02-07T05:29:22.733Z,25.85
2023-02-07T05:32:07.561Z,28.60
2023-02-07T05:34:34.058Z,25.77
2023-02-07T05:37:00.585Z,23.00
2023-02-07T05:39:27.189Z,25.93
2023-02-07T05:41:53.805Z,24.98
2023-02-07T05:44:20.319Z,22.77
2023-02-07T05:46:46.826Z,25.05
2023-02-07T05:49:13.347Z,25.67
2023-02-07T05:51:40.555Z,23.03
2023-02-07T05:54:07.078Z,28.25
2023-02-07T05:56:33.557Z,26.30
2023-02-07T05:59:00.129Z,27.05
2023-02-07T06:01:26.641Z,24.58
2023-02-07T06:03:53.181Z,24.93
2023-02-07T06:06:19.745Z,27.13
2023-02-07T06:08:46.216Z,26.58
2023-02-07T06:11:12.697Z,26.45
2023-02-07T06:13:39.367Z,21.20
2023-02-07T06:16:06.137Z,21.67
2023-02-07T06:18:32.759Z,25.30
2023-02-07T06:20:59.240Z,22.67
2023-02-07T06:23:25.732Z,26.52
2023-02-07T06:25:52.256Z,26.02
2023-02-07T06:28:19.532Z,22.73
2023-02-07T06:30:46.331Z,24.27
2023-02-07T06:33:12.867Z,25.33
2023-02-07T06:35:39.632Z,23.30
2023-02-07T06:38:06.355Z,23.27
2023-02-07T06:40:32.766Z,22.30
2023-02-07T06:42:59.337Z,20.58
2023-02-07T06:45:25.874Z,26.00
2023-02-07T06:47:52.337Z,21.60
2023-02-07T06:50:18.872Z,22.10
2023-02-07T06:52:45.510Z,24.77
2023-02-07T06:55:12.061Z,21.23
2023-02-07T06:57:38.583Z,24.02
2023-02-07T07:00:05.995Z,22.83
2023-02-07T07:02:32.612Z,21.13
2023-02-07T07:04:59.132Z,25.90
2023-02-07T07:07:25.672Z,38.47
2023-02-07T07:09:52.193Z,22.20
2023-02-07T07:12:18.666Z,22.60
2023-02-07T07:14:45.176Z,24.10
2023-02-07T07:17:11.611Z,22.80
2023-02-07T07:19:38.133Z,21.48
2023-02-07T07:22:04.645Z,20.83
2023-02-07T07:24:31.230Z,26.98
2023-02-07T07:26:57.753Z,22.55
2023-02-07T07:29:24.298Z,24.77
2023-02-07T07:31:50.900Z,24.30
2023-02-07T07:34:17.409Z,26.08
2023-02-07T07:36:43.953Z,21.95
2023-02-07T07:39:11.930Z,23.45
2023-02-07T07:41:38.589Z,23.47
2023-02-07T07:44:05.209Z,26.35
2023-02-07T07:46:31.797Z,21.40
2023-02-07T07:48:58.337Z,24.92
2023-02-07T07:51:24.826Z,25.58
2023-02-07T07:53:51.351Z,22.90
2023-02-07T07:56:17.902Z,25.35
2023-02-07T07:58:44.422Z,20.38
2023-02-07T08:01:10.984Z,22.83
2023-02-07T08:03:37.566Z,20.75
2023-02-07T08:06:04.316Z,19.90
2023-02-07T08:08:30.844Z,22.88
2023-02-07T08:11:04.776Z,23.48
2023-02-07T08:13:33.077Z,24.33
2023-02-07T08:16:00.792Z,26.40
2023-02-07T08:18:27.740Z,24.10
2023-02-07T08:20:54.543Z,24.98
2023-02-07T08:23:21.682Z,24.88
2023-02-07T08:25:49.766Z,21.92
2023-02-07T08:28:17.031Z,25.05
2023-02-07T08:30:43.959Z,24.87
2023-02-07T08:33:10.951Z,21.83
2023-02-07T08:35:37.666Z,23.30
2023-02-07T08:38:04.309Z,24.50
2023-02-07T08:40:30.965Z,20.50
2023-02-07T08:42:57.728Z,21.90
2023-02-07T08:45:24.319Z,22.38
2023-02-07T08:47:51.375Z,25.95
2023-02-07T08:50:18.847Z,22.02
2023-02-07T08:52:45.909Z,21.67
2023-02-07T08:55:12.485Z,19.80
2023-02-07T08:57:39.038Z,22.42
2023-02-07T09:00:07.285Z,23.00
2023-02-07T09:02:33.944Z,22.52
2023-02-07T09:05:00.508Z,20.98
2023-02-07T09:07:26.977Z,22.33
2023-02-07T09:09:53.509Z,22.67
2023-02-07T09:12:20.016Z,23.42
2023-02-07T09:14:46.540Z,23.35
2023-02-07T09:17:13.077Z,22.80
2023-02-07T09:19:39.555Z,23.80
2023-02-07T09:22:06.499Z,22.30
2023-02-07T09:24:33.086Z,21.48
2023-02-07T09:26:59.663Z,24.88
2023-02-07T09:29:26.244Z,25.08
2023-02-07T09:31:52.839Z,20.60
2023-02-07T09:34:19.868Z,21.58
2023-02-07T09:36:46.434Z,19.90
2023-02-07T09:39:13.116Z,17.83
2023-02-07T09:41:43.123Z,22.67
2023-02-07T09:44:27.682Z,20.77
2023-02-07T09:47:13.402Z,21.30
2023-02-07T09:49:48.797Z,20.65
2023-02-07T09:52:23.699Z,21.58
2023-02-07T09:54:53.678Z,19.77
2023-02-07T09:57:31.663Z,21.03
2023-02-07T10:00:22.978Z,20.27
2023-02-07T10:03:15.074Z,18.50
2023-02-07T10:06:17.958Z,18.00
2023-02-07T10:08:49.576Z,17.40
2023-02-07T10:11:38.046Z,20.20
2023-02-07T10:14:22.814Z,17.35
2023-02-07T10:17:10.590Z,17.77
2023-02-07T10:20:02.746Z,18.48
2023-02-07T10:22:41.664Z,18.63
2023-02-07T10:25:33.856Z,21.17
2023-02-07T10:28:15.827Z,17.27
2023-02-07T10:30:51.438Z,16.58
2023-02-07T10:33:40.682Z,21.20
2023-02-07T10:36:14.833Z,16.50
2023-02-07T10:39:07.734Z,14.50
2023-02-07T10:41:38.042Z,20.88
2023-02-07T10:44:06.859Z,16.13
2023-02-07T10:46:34.871Z,17.80
2023-02-07T10:49:01.994Z,16.60
2023-02-07T10:51:36.074Z,16.17
2023-02-07T10:54:04.528Z,17.58
2023-02-07T10:56:33.644Z,16.65
2023-02-07T10:59:00.444Z,14.82
2023-02-07T11:01:29.199Z,14.10
2023-02-07T11:03:56.174Z,17.50
2023-02-07T11:06:28.961Z,15.05
2023-02-07T11:09:21.858Z,15.88
2023-02-07T11:11:53.295Z,15.02
2023-02-07T11:14:26.563Z,15.13
2023-02-07T11:16:57.954Z,14.07
2023-02-07T11:19:27.764Z,12.50
2023-02-07T11:22:07.229Z,12.68
2023-02-07T11:24:37.621Z,10.90
2023-02-07T11:27:15.231Z,13.75
2023-02-07T11:29:45.078Z,13.30
2023-02-07T11:32:14.406Z,10.85
2023-02-07T11:34:58.143Z,14.13
2023-02-07T11:37:29.050Z,12.40
2023-02-07T11:40:34.242Z,15.43
2023-02-07T11:43:09.908Z,11.90
2023-02-07T11:45:42.126Z,13.70
2023-02-07T11:48:18.842Z,11.43
2023-02-07T11:50:49.577Z,13.20
2023-02-07T11:53:40.668Z,12.60
2023-02-07T11:56:20.014Z,13.50
2023-02-07T11:58:47.392Z,12.73
2023-02-07T12:01:18.992Z,11.52
2023-02-07T12:04:12.807Z,10.65
2023-02-07T12:06:43.510Z,10.68
2023-02-07T12:09:23.449Z,9.73
2023-02-07T12:11:55.040Z,11.30
2023-02-07T12:14:43.776Z,9.68
2023-02-07T12:17:20.345Z,9.68
2023-02-07T12:19:55.884Z,10.00
2023-02-07T12:22:28.921Z,8.80
2023-02-07T12:25:20.084Z,10.98
2023-02-07T12:27:51.886Z,10.32
2023-02-07T12:30:39.331Z,11.60
2023-02-07T12:34:01.431Z,10.38
2023-02-07T12:36:35.108Z,9.70
2023-02-07T12:39:22.516Z,9.38
2023-02-07T12:42:14.473Z,11.50
2023-02-07T12:44:47.346Z,10.45
2023-02-07T12:47:55.795Z,10.13
2023-02-07T12:50:55.092Z,9.40
2023-02-07T12:53:36.842Z,8.35
2023-02-07T12:56:16.726Z,10.65
2023-02-07T12:59:08.066Z,11.50
2023-02-07T13:01:52.833Z,9.98
2023-02-07T13:05:07.321Z,9.13
2023-02-07T13:07:39.484Z,9.40
2023-02-07T13:10:36.359Z,10.10
2023-02-07T13:13:36.215Z,8.88
2023-02-07T13:16:02.705Z,9.88
2023-02-07T13:18:37.483Z,9.03
2023-02-07T13:21:18.223Z,7.47
2023-02-07T13:23:48.168Z,7.90
2023-02-07T13:26:21.260Z,8.55
2023-02-07T13:28:59.003Z,9.43
2023-02-07T13:31:46.408Z,8.63
2023-02-07T13:34:19.932Z,8.45
2023-02-07T13:36:54.090Z,8.65
2023-02-07T13:39:57.833Z,8.50
2023-02-07T13:43:00.145Z,6.82
2023-02-07T13:45:38.734Z,7.17
2023-02-07T13:48:35.287Z,10.20
2023-02-07T13:51:12.149Z,7.32
2023-02-07T13:53:51.570Z,8.63
2023-02-07T13:56:49.786Z,8.02
2023-02-07T13:59:39.621Z,7.93
2023-02-07T14:02:20.238Z,8.88
2023-02-07T14:04:53.762Z,7.10
2023-02-07T14:07:33.852Z,7.07
2023-02-07T14:10:00.448Z,8.65
2023-02-07T14:12:30.164Z,9.77
2023-02-07T14:15:30.508Z,8.52
2023-02-07T14:18:06.411Z,7.97
2023-02-07T14:20:36.043Z,9.75
2023-02-07T14:23:13.754Z,8.18
2023-02-07T14:25:42.417Z,9.07
2023-02-07T14:28:19.406Z,8.70
2023-02-07T14:30:48.993Z,9.00
2023-02-07T14:33:20.245Z,9.95
2023-02-07T14:36:14.112Z,7.10
2023-02-07T14:38:43.452Z,7.20
2023-02-07T14:41:13.602Z,8.02
2023-02-07T14:43:44.431Z,9.35
2023-02-07T14:46:18.042Z,10.18
2023-02-07T14:48:52.349Z,9.90
2023-02-07T14:51:38.615Z,8.63
2023-02-07T14:54:19.255Z,8.38
2023-02-07T14:57:13.511Z,8.35
2023-02-07T15:00:12.578Z,8.82
2023-02-07T15:02:50.147Z,8.98
2023-02-07T15:05:23.425Z,8.13
2023-02-07T15:08:14.198Z,7.78
2023-02-07T15:10:46.095Z,7.68
2023-02-07T15:13:23.728Z,7.75
2023-02-07T15:15:54.846Z,9.88
2023-02-07T15:18:25.262Z,8.57
2023-02-07T15:20:58.429Z,8.65
2023-02-07T15:23:28.208Z,7.38
2023-02-07T15:25:54.742Z,8.25
2023-02-07T15:28:32.194Z,8.75
2023-02-07T15:31:12.312Z,7.67
2023-02-07T15:33:47.303Z,9.27
2023-02-07T15:36:28.143Z,8.73
2023-02-07T15:38:55.144Z,7.60
2023-02-07T15:41:21.637Z,7.90
2023-02-07T15:43:54.061Z,9.37
2023-02-07T15:46:21.262Z,9.75
2023-02-07T15:48:54.957Z,9.73
2023-02-07T15:51:26.225Z,8.25
2023-02-07T15:53:56.956Z,7.72
2023-02-07T15:56:24.236Z,8.33
2023-02-07T15:58:51.201Z,9.82
2023-02-07T16:01:24.417Z,9.73
2023-02-07T16:03:52.076Z,10.18
2023-02-07T16:06:21.769Z,11.65
2023-02-07T16:08:50.805Z,10.17
2023-02-07T16:11:35.954Z,16.25
2023-02-07T16:14:14.201Z,18.13
2023-02-07T16:16:48.210Z,14.73
2023-02-07T16:19:14.714Z,12.57
2023-02-07T16:21:43.262Z,11.70
2023-02-07T16:24:19.744Z,9.48
2023-02-07T16:26:46.828Z,9.52
2023-02-07T16:29:19.470Z,9.07
2023-02-07T16:31:46.258Z,8.88
2023-02-07T16:34:15.348Z,9.10
2023-02-07T16:36:42.563Z,11.13
2023-02-07T16:39:09.587Z,9.20
2023-02-07T16:41:41.444Z,9.93
2023-02-07T16:44:12.708Z,12.68
2023-02-07T16:46:39.149Z,9.90
2023-02-07T16:49:16.623Z,9.38
2023-02-07T16:51:44.159Z,10.68
2023-02-07T16:54:11.006Z,12.30
2023-02-07T16:56:37.674Z,12.25
2023-02-07T16:59:04.765Z,12.53
2023-02-07T17:01:31.462Z,13.02
2023-02-07T17:03:57.979Z,14.85
2023-02-07T17:06:24.677Z,12.57
2023-02-07T17:08:53.898Z,13.00
2023-02-07T17:11:25.604Z,13.83
2023-02-07T17:13:56.825Z,17.10
2023-02-07T17:16:25.286Z,17.98
2023-02-07T17:18:52.567Z,16.15
2023-02-07T17:21:21.952Z,18.35
2023-02-07T17:23:49.178Z,17.60
2023-02-07T17:26:22.445Z,16.35
2023-02-07T17:28:50.024Z,13.50
2023-02-07T17:31:16.707Z,14.57
2023-02-07T17:33:43.311Z,12.43
2023-02-07T17:36:13.794Z,17.53
2023-02-07T17:38:40.437Z,13.52
2023-02-07T17:41:07.968Z,11.85
2023-02-07T17:43:34.446Z,11.15
2023-02-07T17:46:01.049Z,17.08
2023-02-07T17:48:30.347Z,13.03
2023-02-07T17:50:57.020Z,13.38
2023-02-07T17:53:23.650Z,11.85
2023-02-07T17:55:50.723Z,11.27
2023-02-07T17:58:18.428Z,12.02
2023-02-07T18:00:45.078Z,12.83
2023-02-07T18:03:11.598Z,10.90
2023-02-07T18:05:40.263Z,15.32
2023-02-07T18:08:06.762Z,12.63
2023-02-07T18:10:34.800Z,13.35
2023-02-07T18:13:01.889Z,14.97
2023-02-07T18:15:28.912Z,15.05
2023-02-07T18:17:55.938Z,15.48
2023-02-07T18:20:31.347Z,13.32
2023-02-07T18:22:59.085Z,14.05
2023-02-07T18:25:27.278Z,20.60
2023-02-07T18:27:54.605Z,15.88
2023-02-07T18:30:23.425Z,13.85
2023-02-07T18:32:49.978Z,15.13
2023-02-07T18:35:16.885Z,15.32
2023-02-07T18:37:43.638Z,15.43
2023-02-07T18:40:10.533Z,13.57
2023-02-07T18:42:37.054Z,15.93
2023-02-07T18:45:03.749Z,14.88
2023-02-07T18:47:32.345Z,18.50
2023-02-07T18:49:58.853Z,15.83
2023-02-07T18:52:25.334Z,13.90
2023-02-07T18:54:51.844Z,14.20
2023-02-07T18:57:19.157Z,14.50
2023-02-07T18:59:45.640Z,14.68
2023-02-07T19:02:13.237Z,14.77
2023-02-07T19:04:40.271Z,14.27
2023-02-07T19:07:06.992Z,17.23
2023-02-07T19:09:33.764Z,15.82
2023-02-07T19:12:00.459Z,17.92
2023-02-07T19:14:32.850Z,16.53
2023-02-07T19:16:59.932Z,20.73
2023-02-07T19:19:30.137Z,20.30
2023-02-07T19:21:57.386Z,22.45
2023-02-07T19:24:24.733Z,23.38
2023-02-07T19:26:54.233Z,26.53
2023-02-07T19:29:27.971Z,25.15
2023-02-07T19:31:58.988Z,26.58
2023-02-07T19:34:25.903Z,28.65
2023-02-07T19:36:52.437Z,29.90
2023-02-07T19:39:19.517Z,30.37
2023-02-07T19:41:46.061Z,25.42
2023-02-07T19:44:12.530Z,25.40
2023-02-07T19:46:39.046Z,24.30
2023-02-07T19:49:05.843Z,23.35
2023-02-07T19:51:32.765Z,24.87
2023-02-07T19:53:59.952Z,20.75
2023-02-07T19:56:29.680Z,19.33
2023-02-07T19:58:56.254Z,18.60
2023-02-07T20:01:27.441Z,16.10
2023-02-07T20:03:55.683Z,16.77
2023-02-07T20:06:28.478Z,17.65
2023-02-07T20:08:57.362Z,16.45
2023-02-07T20:11:23.929Z,18.02
2023-02-07T20:13:53.291Z,14.93
2023-02-07T20:16:23.231Z,17.20
2023-02-07T20:18:51.984Z,16.10
2023-02-07T20:21:21.933Z,13.63
2023-02-07T20:23:53.470Z,16.95
2023-02-07T20:26:22.691Z,16.75
2023-02-07T20:28:50.104Z,16.70
2023-02-07T20:31:20.295Z,20.33
2023-02-07T20:33:47.105Z,18.20
2023-02-07T20:36:15.237Z,17.65
2023-02-07T20:38:43.863Z,16.70
2023-02-07T20:41:14.474Z,17.67
2023-02-07T20:43:42.965Z,18.08
2023-02-07T20:46:14.025Z,16.08
2023-02-07T20:48:41.383Z,18.88
2023-02-07T20:51:12.332Z,22.38
2023-02-07T20:53:40.823Z,27.40
2023-02-07T20:56:13.253Z,25.30
2023-02-07T20:58:40.077Z,26.52
2023-02-07T21:01:08.752Z,23.45
2023-02-07T21:03:35.387Z,20.02
2023-02-07T21:06:02.153Z,21.80
2023-02-07T21:08:28.832Z,18.88
2023-02-07T21:10:55.886Z,20.73
2023-02-07T21:13:22.415Z,19.60
2023-02-07T21:16:02.250Z,22.20
2023-02-07T21:18:29.586Z,19.73
2023-02-07T21:20:57.035Z,20.55
2023-02-07T21:23:23.895Z,23.45
2023-02-07T21:25:50.749Z,21.65
2023-02-07T21:28:17.306Z,22.63
2023-02-07T21:30:48.226Z,23.73
2023-02-07T21:33:14.737Z,26.52
2023-02-07T21:35:41.260Z,26.77
2023-02-07T21:38:07.802Z,26.92
2023-02-07T21:40:34.468Z,24.75
2023-02-07T21:43:01.073Z,25.33
2023-02-07T21:45:27.610Z,27.65
2023-02-07T21:47:54.152Z,25.10
2023-02-07T21:50:20.927Z,23.35
2023-02-07T21:52:47.439Z,23.35
2023-02-07T21:55:14.102Z,21.37
2023-02-07T21:57:40.604Z,20.92
2023-02-07T22:00:08.266Z,20.88
2023-02-07T22:02:36.170Z,22.77
2023-02-07T22:05:02.722Z,23.58
2023-02-07T22:07:29.202Z,21.33
2023-02-07T22:09:55.764Z,21.45
2023-02-07T22:12:22.303Z,20.23
2023-02-07T22:14:48.869Z,20.98
2023-02-07T22:17:15.372Z,22.38
2023-02-07T22:19:42.019Z,22.20
2023-02-07T22:22:08.520Z,21.70
2023-02-07T22:24:35.064Z,24.73
2023-02-07T22:27:01.601Z,26.40
2023-02-07T22:29:28.154Z,22.83
2023-02-07T22:31:55.201Z,25.63
2023-02-07T22:34:21.844Z,22.35
2023-02-07T22:36:48.440Z,25.92
2023-02-07T22:39:16.804Z,25.20
2023-02-07T22:41:43.938Z,25.38
2023-02-07T22:44:10.963Z,24.30
2023-02-07T22:46:37.930Z,23.85
2023-02-07T22:49:04.455Z,26.83
2023-02-07T22:51:34.172Z,24.58
2023-02-07T22:54:05.428Z,25.63
2023-02-07T22:56:32.016Z,24.97
2023-02-07T22:58:58.724Z,26.15
2023-02-07T23:01:31.457Z,24.35
2023-02-07T23:03:58.407Z,25.85
2023-02-07T23:06:26.338Z,23.77
2023-02-07T23:08:53.205Z,27.67
2023-02-07T23:11:21.735Z,21.45
2023-02-07T23:13:48.522Z,20.33
2023-02-07T23:16:17.834Z,23.25
2023-02-07T23:18:44.710Z,22.13
2023-02-07T23:21:12.864Z,20.50
2023-02-07T23:23:39.729Z,20.25
2023-02-07T23:26:12.173Z,21.27
2023-02-07T23:28:39.634Z,20.35
2023-02-07T23:31:07.933Z,21.00
2023-02-07T23:33:34.601Z,20.07
2023-02-07T23:36:01.652Z,20.38
2023-02-07T23:38:28.433Z,20.58
2023-02-07T23:40:55.063Z,21.23
2023-02-07T23:43:21.630Z,25.35
2023-02-07T23:45:48.111Z,20.73
2023-02-07T23:48:14.577Z,20.10
2023-02-07T23:50:41.440Z,18.83
2023-02-07T23:53:08.240Z,20.65
2023-02-07T23:55:34.809Z,19.63
2023-02-07T23:58:01.220Z,20.27
